Terminal Aerodrome Forecast
Issued by NWS

Home | Current Version | Previous Version | Text Only | Print | Product List | Glossary On
Versions: 1 2 3 4 5 6 7 8 9 10 11 12 13 14
000
FTUS43 KSGF 040520
TAFBBG
TAF
KBBG 040520Z 0406/0506 VRB03KT P6SM SCT250
     FM041500 18005KT P6SM SCT200
     FM042200 20006KT P6SM VCTS SCT050CB
     FM050100 18005KT P6SM SCT050 BKN200 PROB30 0502/0506 4SM TSRA
      BR BKN040CB=

USA.gov is the U.S. government's official web portal to all federal, state and local government web resources and services.